CPA2 weather

Mount Forest (Louise Marshall Hospital) Heliport
Mount Forest, Ontario, Canada

Public forecast

Using degrees Celsius for public forecast. Weather courtesy of forecast.io.

METAR (pilot weather report)

Closest report is Waterloo Airport, 34.5 nm (64.0 km) SSE. Retrieved 2019/07/21 22:00 UTC (53 minutes ago):

CYKF 212200Z AUTO 32009G15KT 9SM CLR 26/13 A2993 RMK SLP132 DENSITY ALT 2400FT

TAF (pilot weather forecast)

Closest forecast is Waterloo Airport, 34.5 nm (64.0 km) SSE. Retrieved 2019/07/21 20:39 UTC (2 hours ago):

TAF CYKF 211938Z 2120/2208 30008KT P6SM SKC FM220600 33008KT P6SM FEW120 SCT200 RMK FCST BASED ON AUTO OBS. NXT FCST BY 220200Z